KILE/ILE METAR and TAF weather

Enter ICAO airport designator
Station Type Date Time Source
KILE METAR 2020/11/25 22:56 UTC NOAA

KILE 252256Z AUTO 08006KT 10SM CLR 18/02 A3005 RMK AO2 SLP170 T01780017


Station Type Date Time Source
KILE Decoded METAR 2020/11/25 22:56 UTC NOAA

Killeen, Skylark Field Airport, TX, United States (KILE) 31-05N 097-41W
Nov 25, 2020 - 05:56 PM EST / 2020.11.25 2256 UTC
Wind: from the E (080 degrees) at 7 MPH (6 KT):0
Visibility: 10 mile(s):0
Sky conditions: clear
Temperature: 64.0 F (17.8 C)
Dew Point: 35.1 F (1.7 C)
Relative Humidity: 33%
Pressure (altimeter): 30.05 in. Hg (1017 hPa)
ob: KILE 252256Z AUTO 08006KT 10SM CLR 18/02 A3005 RMK AO2 SLP170 T01780017
cycle: 23

Station Type Date Time Source
KILE TAF UTC NOAA

Error!

Example: see airport list